Time;durP1;ratioP1;P1;durP2;ratioP2;P2;SDS_P1;SDS_P2;PMS_P1;PMS_P2;Temp;Humidity;BMP_temperature;BMP_pressure;BME280_temperature;BME280_humidity;BME280_pressure;Samples;Min_cycle;Max_cycle;Signal;HPM_P1;HPM_P2
2021/08/05 00:00:10;;;;;;;;;6.00;5.00;;;;;;;;5121522;27;45543;-76
2021/08/05 00:02:36;;;;;;;;;6.00;5.00;;;;;;;;5121540;27;45302;-76
2021/08/05 00:05:01;;;;;;;;;7.00;7.00;;;;;;;;5121084;27;45394;-76
2021/08/05 00:07:26;;;;;;;;;8.00;7.00;;;;;;;;5121548;27;45249;-76
2021/08/05 00:09:51;;;;;;;;;9.33;8.33;;;;;;;;5121350;27;45473;-76
2021/08/05 00:12:17;;;;;;;;;7.33;7.33;;;;;;;;5121366;27;46097;-75
2021/08/05 00:14:43;;;;;;;;;8.33;7.00;;;;;;;;5103269;27;45582;-77
2021/08/05 00:17:09;;;;;;;;;6.00;5.33;;;;;;;;5099171;27;45318;-75
2021/08/05 00:19:34;;;;;;;;;9.33;7.00;;;;;;;;5100422;27;45329;-75
2021/08/05 00:22:01;;;;;;;;;6.33;6.33;;;;;;;;5100359;27;46315;-76
2021/08/05 00:24:27;;;;;;;;;9.67;8.00;;;;;;;;5100617;27;45396;-75
2021/08/05 00:26:52;;;;;;;;;8.33;7.67;;;;;;;;5100894;27;45293;-76
2021/08/05 00:29:17;;;;;;;;;9.00;8.00;;;;;;;;5100405;27;45221;-76
2021/08/05 00:31:42;;;;;;;;;7.33;7.33;;;;;;;;5141720;27;47577;-77
2021/08/05 00:34:08;;;;;;;;;7.00;7.00;;;;;;;;5100974;27;45305;-76
2021/08/05 00:36:33;;;;;;;;;9.00;9.00;;;;;;;;5100501;27;45280;-75
2021/08/05 00:38:58;;;;;;;;;8.00;7.67;;;;;;;;5100236;27;45225;-76
2021/08/05 00:41:23;;;;;;;;;10.00;9.33;;;;;;;;5100327;27;45456;-76
2021/08/05 00:43:49;;;;;;;;;8.67;8.00;;;;;;;;5100325;27;45342;-76
2021/08/05 00:46:14;;;;;;;;;9.33;7.00;;;;;;;;5100440;27;45411;-76
2021/08/05 00:48:39;;;;;;;;;7.33;6.33;;;;;;;;5099998;27;45309;-75
2021/08/05 00:51:04;;;;;;;;;9.00;7.67;;;;;;;;5099896;27;46141;-76
2021/08/05 00:53:30;;;;;;;;;6.67;6.33;;;;;;;;5100198;27;45298;-75
2021/08/05 00:55:55;;;;;;;;;6.33;5.67;;;;;;;;5100422;27;45323;-76
2021/08/05 00:58:21;;;;;;;;;5.67;5.67;;;;;;;;5100163;27;45585;-76
2021/08/05 01:00:49;;;;;;;;;7.00;7.00;;;;;;;;5099956;27;45900;-76
2021/08/05 01:03:22;;;;;;;;;5.00;5.00;;;;;;;;5101649;27;45331;-76
2021/08/05 01:05:52;;;;;;;;;8.33;6.33;;;;;;;;5103563;27;45328;-76
2021/08/05 01:08:22;;;;;;;;;7.00;7.00;;;;;;;;5103526;27;45215;-76
2021/08/05 01:10:50;;;;;;;;;6.00;6.00;;;;;;;;5103387;27;46255;-76
2021/08/05 01:13:30;;;;;;;;;6.33;6.33;;;;;;;;5110986;27;45333;-76
2021/08/05 01:15:56;;;;;;;;;8.00;7.00;;;;;;;;5124134;27;45345;-76
2021/08/05 01:18:31;;;;;;;;;8.00;7.00;;;;;;;;5124133;27;45337;-76
2021/08/05 01:21:00;;;;;;;;;8.00;7.00;;;;;;;;5123980;27;45362;-76
2021/08/05 01:23:29;;;;;;;;;6.33;6.00;;;;;;;;5124085;27;45301;-76
2021/08/05 01:25:57;;;;;;;;;8.00;8.00;;;;;;;;5124217;27;45509;-76
2021/08/05 01:28:22;;;;;;;;;8.00;7.00;;;;;;;;5123964;27;45306;-75
2021/08/05 01:30:49;;;;;;;;;6.00;6.00;;;;;;;;5136443;27;46098;-76
2021/08/05 01:33:18;;;;;;;;;8.00;8.00;;;;;;;;5144792;27;45237;-76
2021/08/05 01:35:44;;;;;;;;;8.67;8.67;;;;;;;;5144600;27;45349;-77
2021/08/05 01:38:11;;;;;;;;;8.00;6.33;;;;;;;;5144306;27;45396;-76
2021/08/05 01:40:38;;;;;;;;;8.33;8.33;;;;;;;;5144522;27;45416;-75
2021/08/05 01:43:03;;;;;;;;;7.00;7.00;;;;;;;;5144555;27;45385;-76
2021/08/05 01:45:29;;;;;;;;;6.00;6.00;;;;;;;;5144579;27;45449;-76
2021/08/05 01:47:56;;;;;;;;;6.33;6.00;;;;;;;;5144617;27;45450;-76
2021/08/05 01:50:21;;;;;;;;;10.00;8.33;;;;;;;;5130243;27;46415;-76
2021/08/05 01:52:48;;;;;;;;;5.33;5.33;;;;;;;;5102965;27;45352;-76
2021/08/05 01:55:13;;;;;;;;;8.00;8.00;;;;;;;;5103117;27;45351;-76
2021/08/05 01:57:38;;;;;;;;;7.67;7.00;;;;;;;;5103007;27;45517;-75
2021/08/05 02:00:05;;;;;;;;;9.00;8.33;;;;;;;;5102958;27;46003;-76
2021/08/05 02:02:30;;;;;;;;;10.67;10.00;;;;;;;;5102812;27;45294;-76
2021/08/05 02:04:58;;;;;;;;;7.00;7.00;;;;;;;;5102674;27;45348;-76
2021/08/05 02:07:47;;;;;;;;;9.33;7.67;;;;;;;;5102652;27;45242;-76
2021/08/05 02:10:21;;;;;;;;;8.00;8.00;;;;;;;;5099221;27;46753;-76
2021/08/05 02:12:48;;;;;;;;;11.33;9.67;;;;;;;;5102703;27;45340;-76
2021/08/05 02:15:15;;;;;;;;;9.00;8.67;;;;;;;;5101470;27;45356;-75
2021/08/05 02:17:41;;;;;;;;;10.00;9.00;;;;;;;;5102125;27;45313;-75
2021/08/05 02:20:08;;;;;;;;;10.00;10.00;;;;;;;;5102292;27;45393;-76
2021/08/05 02:22:34;;;;;;;;;9.00;7.33;;;;;;;;5102383;27;45220;-76
2021/08/05 02:24:59;;;;;;;;;9.33;6.67;;;;;;;;5102640;27;45256;-76
2021/08/05 02:27:26;;;;;;;;;6.00;6.00;;;;;;;;5102484;27;45425;-76
2021/08/05 02:29:51;;;;;;;;;7.00;7.00;;;;;;;;5111788;27;45341;-76
2021/08/05 02:32:17;;;;;;;;;7.67;7.67;;;;;;;;5143753;27;45307;-76
2021/08/05 02:34:43;;;;;;;;;8.00;8.00;;;;;;;;5143705;27;45289;-76
2021/08/05 02:37:08;;;;;;;;;8.00;7.67;;;;;;;;5143450;27;45608;-76
2021/08/05 02:39:33;;;;;;;;;9.00;7.67;;;;;;;;5143708;27;45337;-76
2021/08/05 02:41:59;;;;;;;;;8.00;7.00;;;;;;;;5143724;27;45410;-75
2021/08/05 02:44:26;;;;;;;;;7.33;7.33;;;;;;;;5143775;27;45366;-75
2021/08/05 02:46:51;;;;;;;;;8.33;8.33;;;;;;;;5143622;27;45340;-74
2021/08/05 02:49:17;;;;;;;;;8.67;8.67;;;;;;;;5143128;27;45311;-75
2021/08/05 02:51:44;;;;;;;;;7.00;6.33;;;;;;;;5143408;27;45306;-74
2021/08/05 02:54:09;;;;;;;;;10.33;9.00;;;;;;;;5143572;27;45186;-74
2021/08/05 02:56:35;;;;;;;;;8.00;7.33;;;;;;;;5143394;27;45335;-74
2021/08/05 02:59:00;;;;;;;;;7.33;6.67;;;;;;;;5143342;27;45223;-75
2021/08/05 03:01:27;;;;;;;;;7.67;7.67;;;;;;;;5143521;27;45302;-74
2021/08/05 03:03:53;;;;;;;;;6.00;6.00;;;;;;;;5143309;27;45288;-75
2021/08/05 03:06:24;;;;;;;;;9.00;9.00;;;;;;;;5142890;27;45213;-74
2021/08/05 03:08:49;;;;;;;;;7.67;7.67;;;;;;;;5143104;27;46175;-75
2021/08/05 03:11:14;;;;;;;;;9.67;9.00;;;;;;;;5143108;27;45261;-74
2021/08/05 03:13:40;;;;;;;;;6.67;6.67;;;;;;;;5143368;27;45151;-74
2021/08/05 03:16:05;;;;;;;;;9.00;7.67;;;;;;;;5119593;27;45387;-74
2021/08/05 03:18:30;;;;;;;;;7.67;6.67;;;;;;;;5101530;27;45266;-75
2021/08/05 03:20:55;;;;;;;;;9.33;9.33;;;;;;;;5101449;27;45220;-75
2021/08/05 03:23:21;;;;;;;;;8.00;8.00;;;;;;;;5101749;27;45281;-75
2021/08/05 03:25:46;;;;;;;;;7.67;7.67;;;;;;;;5101101;27;45270;-75
2021/08/05 03:28:11;;;;;;;;;6.00;6.00;;;;;;;;5101501;27;46096;-75
2021/08/05 03:30:36;;;;;;;;;8.67;6.33;;;;;;;;5123745;27;45425;-75
2021/08/05 03:33:02;;;;;;;;;7.00;7.00;;;;;;;;5143073;27;45210;-74
2021/08/05 03:35:28;;;;;;;;;8.00;8.00;;;;;;;;5142645;27;45428;-74
2021/08/05 03:37:53;;;;;;;;;7.00;7.00;;;;;;;;5142428;27;45205;-74
2021/08/05 03:40:18;;;;;;;;;8.00;7.00;;;;;;;;5142674;27;45280;-74
2021/08/05 03:42:44;;;;;;;;;8.67;8.00;;;;;;;;5142746;27;45299;-74
2021/08/05 03:45:09;;;;;;;;;5.00;5.00;;;;;;;;5142533;27;45609;-75
2021/08/05 03:47:35;;;;;;;;;8.50;6.50;;;;;;;;5142655;27;45295;-74
2021/08/05 03:50:00;;;;;;;;;6.67;6.33;;;;;;;;5142359;27;45299;-75
2021/08/05 03:52:25;;;;;;;;;9.67;8.00;;;;;;;;5142553;27;45300;-75
2021/08/05 03:54:50;;;;;;;;;9.00;8.67;;;;;;;;5142422;27;45311;-74
2021/08/05 03:57:16;;;;;;;;;9.67;9.00;;;;;;;;5142297;27;45306;-75
2021/08/05 03:59:41;;;;;;;;;8.33;8.33;;;;;;;;5142476;27;45363;-75
2021/08/05 04:02:06;;;;;;;;;6.00;6.00;;;;;;;;5142643;27;45256;-75
2021/08/05 04:04:31;;;;;;;;;6.33;6.33;;;;;;;;5142059;27;45513;-75
2021/08/05 04:06:57;;;;;;;;;8.33;8.33;;;;;;;;5142118;27;45862;-75
2021/08/05 04:09:22;;;;;;;;;7.00;7.00;;;;;;;;5142207;27;45297;-75
2021/08/05 04:11:47;;;;;;;;;10.67;9.00;;;;;;;;5142344;27;45438;-74
2021/08/05 04:14:13;;;;;;;;;8.33;6.00;;;;;;;;5142098;27;45248;-75
2021/08/05 04:16:38;;;;;;;;;7.33;7.33;;;;;;;;5141857;27;45470;-74
2021/08/05 04:19:03;;;;;;;;;6.67;6.67;;;;;;;;5141857;27;45340;-75
2021/08/05 04:21:28;;;;;;;;;5.67;4.67;;;;;;;;5142248;27;45430;-75
2021/08/05 04:23:54;;;;;;;;;6.33;6.33;;;;;;;;5142115;27;45482;-75
2021/08/05 04:26:19;;;;;;;;;9.00;7.00;;;;;;;;5141851;27;45349;-74
2021/08/05 04:28:44;;;;;;;;;9.33;8.00;;;;;;;;5142015;27;45193;-75
2021/08/05 04:31:09;;;;;;;;;7.67;6.00;;;;;;;;5125796;27;45251;-75
2021/08/05 04:33:35;;;;;;;;;6.33;6.33;;;;;;;;5121166;27;45434;-75
2021/08/05 04:36:00;;;;;;;;;9.00;9.00;;;;;;;;5121016;27;45253;-75
2021/08/05 04:38:25;;;;;;;;;8.67;8.00;;;;;;;;5119892;27;45231;-75
2021/08/05 04:40:51;;;;;;;;;10.00;10.00;;;;;;;;5121410;27;45238;-75
2021/08/05 04:43:16;;;;;;;;;9.00;7.33;;;;;;;;5121051;27;45309;-76
2021/08/05 04:45:41;;;;;;;;;11.00;10.00;;;;;;;;5121012;27;45192;-75
2021/08/05 04:48:07;;;;;;;;;7.67;6.33;;;;;;;;5120750;27;45392;-74
2021/08/05 04:50:33;;;;;;;;;9.00;8.00;;;;;;;;5120965;27;45241;-74
2021/08/05 04:52:59;;;;;;;;;10.33;7.67;;;;;;;;5120786;27;45436;-75
2021/08/05 04:55:25;;;;;;;;;10.00;8.00;;;;;;;;5120930;27;46243;-75
2021/08/05 04:57:52;;;;;;;;;8.00;8.00;;;;;;;;5120892;27;45318;-75
2021/08/05 05:00:21;;;;;;;;;8.67;8.67;;;;;;;;5121026;27;45284;-75
2021/08/05 05:02:47;;;;;;;;;8.00;8.00;;;;;;;;5120749;27;45474;-75
2021/08/05 05:05:12;;;;;;;;;9.00;9.00;;;;;;;;5120326;27;46079;-75
2021/08/05 05:07:37;;;;;;;;;8.67;8.67;;;;;;;;5120822;27;45280;-75
2021/08/05 05:10:03;;;;;;;;;8.00;8.00;;;;;;;;5120914;27;45300;-74
2021/08/05 05:12:28;;;;;;;;;6.33;6.33;;;;;;;;5120657;27;45429;-75
2021/08/05 05:14:53;;;;;;;;;9.00;9.00;;;;;;;;5120404;27;45319;-75
2021/08/05 05:17:19;;;;;;;;;11.00;9.00;;;;;;;;5120289;27;45265;-76
2021/08/05 05:19:44;;;;;;;;;8.67;8.67;;;;;;;;5120607;27;45363;-76
2021/08/05 05:22:09;;;;;;;;;7.00;7.00;;;;;;;;5120270;27;45493;-75
2021/08/05 05:24:34;;;;;;;;;8.33;7.00;;;;;;;;5120487;27;46000;-75
2021/08/05 05:27:00;;;;;;;;;9.33;9.33;;;;;;;;5120363;27;45297;-74
2021/08/05 05:29:25;;;;;;;;;8.00;8.00;;;;;;;;5121642;27;45270;-74
2021/08/05 05:31:50;;;;;;;;;9.00;9.00;;;;;;;;5141067;27;46770;-73
2021/08/05 05:34:15;;;;;;;;;10.67;10.67;;;;;;;;5140994;27;45358;-74
2021/08/05 05:36:41;;;;;;;;;7.67;7.00;;;;;;;;5141089;27;45223;-74
2021/08/05 05:39:06;;;;;;;;;8.00;8.00;;;;;;;;5141130;27;45295;-75
2021/08/05 05:41:31;;;;;;;;;8.67;8.00;;;;;;;;5141064;27;45313;-75
2021/08/05 05:43:57;;;;;;;;;7.00;7.00;;;;;;;;5140874;27;46500;-75
2021/08/05 05:46:22;;;;;;;;;9.67;9.67;;;;;;;;5140907;27;45316;-76
2021/08/05 05:48:47;;;;;;;;;10.00;9.00;;;;;;;;5141915;27;45347;-75
2021/08/05 05:51:12;;;;;;;;;7.00;7.00;;;;;;;;5138125;27;45615;-74
2021/08/05 05:53:38;;;;;;;;;8.00;8.00;;;;;;;;5103081;27;45226;-75
2021/08/05 05:56:03;;;;;;;;;9.00;9.00;;;;;;;;5103106;27;45360;-75
2021/08/05 05:58:30;;;;;;;;;8.67;8.67;;;;;;;;5103125;27;45445;-75
2021/08/05 06:00:56;;;;;;;;;10.33;9.00;;;;;;;;5103026;27;45341;-74
2021/08/05 06:03:22;;;;;;;;;10.00;9.67;;;;;;;;5102724;27;45265;-75
2021/08/05 06:05:47;;;;;;;;;9.33;9.33;;;;;;;;5102692;27;45233;-76
2021/08/05 06:08:15;;;;;;;;;9.00;9.00;;;;;;;;5102203;27;45422;-78
2021/08/05 06:10:41;;;;;;;;;9.33;9.00;;;;;;;;5111550;27;45463;-75
2021/08/05 06:13:06;;;;;;;;;11.67;11.67;;;;;;;;5109556;27;46011;-74
2021/08/05 06:15:32;;;;;;;;;7.00;7.00;;;;;;;;5101061;27;46158;-74
2021/08/05 06:17:57;;;;;;;;;10.33;10.00;;;;;;;;5102264;27;46519;-75
2021/08/05 06:20:22;;;;;;;;;9.67;9.67;;;;;;;;5102453;27;47090;-75
2021/08/05 06:22:48;;;;;;;;;11.00;10.00;;;;;;;;5102757;27;45339;-75
2021/08/05 06:25:14;;;;;;;;;11.00;11.00;;;;;;;;5104536;27;45362;-74
2021/08/05 06:27:39;;;;;;;;;10.00;9.00;;;;;;;;5104321;27;47332;-75
2021/08/05 06:30:06;;;;;;;;;10.00;8.67;;;;;;;;5109186;27;47394;-75
2021/08/05 06:32:32;;;;;;;;;8.00;7.33;;;;;;;;5112841;27;45259;-76
2021/08/05 06:34:58;;;;;;;;;6.67;6.67;;;;;;;;5100964;27;45444;-75
2021/08/05 06:37:23;;;;;;;;;7.00;7.00;;;;;;;;5101458;27;45418;-75
2021/08/05 06:39:48;;;;;;;;;9.00;9.00;;;;;;;;5110265;27;45471;-76
2021/08/05 06:42:14;;;;;;;;;9.00;9.00;;;;;;;;5102853;27;45333;-75
2021/08/05 06:44:39;;;;;;;;;7.67;7.67;;;;;;;;5099496;27;45405;-75
2021/08/05 06:47:05;;;;;;;;;5.67;5.67;;;;;;;;5100597;27;45300;-76
2021/08/05 06:49:30;;;;;;;;;7.33;7.33;;;;;;;;5101427;27;45444;-75
2021/08/05 06:51:55;;;;;;;;;10.67;8.67;;;;;;;;5107265;27;45473;-75
2021/08/05 06:54:21;;;;;;;;;9.00;8.00;;;;;;;;5104230;27;45407;-75
2021/08/05 06:56:46;;;;;;;;;9.67;9.67;;;;;;;;5101302;27;45381;-75
2021/08/05 06:59:13;;;;;;;;;8.00;8.00;;;;;;;;5104737;27;45636;-75
2021/08/05 07:01:38;;;;;;;;;8.67;8.67;;;;;;;;5106597;27;45468;-74
2021/08/05 07:04:03;;;;;;;;;10.00;10.00;;;;;;;;5103113;27;45333;-75
2021/08/05 07:06:29;;;;;;;;;11.00;11.00;;;;;;;;5100847;27;45431;-75
2021/08/05 07:08:54;;;;;;;;;9.00;9.00;;;;;;;;5103652;27;45550;-75
2021/08/05 07:11:20;;;;;;;;;10.00;10.00;;;;;;;;5100604;27;46364;-75
2021/08/05 07:13:45;;;;;;;;;12.67;12.33;;;;;;;;5103872;27;45375;-74
2021/08/05 07:16:10;;;;;;;;;11.67;10.00;;;;;;;;5105477;27;45595;-75
2021/08/05 07:18:35;;;;;;;;;12.00;10.00;;;;;;;;5106564;27;45372;-74
2021/08/05 07:21:01;;;;;;;;;14.00;13.00;;;;;;;;5108159;27;46188;-74
2021/08/05 07:23:27;;;;;;;;;10.67;10.33;;;;;;;;5104439;27;45333;-75
2021/08/05 07:25:52;;;;;;;;;9.00;8.00;;;;;;;;5112221;27;45352;-75
2021/08/05 07:28:18;;;;;;;;;10.67;9.67;;;;;;;;5111545;27;45255;-75
2021/08/05 07:30:43;;;;;;;;;17.00;15.67;;;;;;;;5105240;27;46157;-75
2021/08/05 07:33:08;;;;;;;;;15.00;15.00;;;;;;;;5113162;27;45340;-74
2021/08/05 07:35:34;;;;;;;;;13.33;11.33;;;;;;;;5106203;27;45265;-74
2021/08/05 07:37:59;;;;;;;;;10.00;9.33;;;;;;;;5108589;27;45517;-75
2021/08/05 07:40:25;;;;;;;;;16.33;16.33;;;;;;;;5098284;27;47909;-75
2021/08/05 07:42:50;;;;;;;;;16.00;15.33;;;;;;;;5102389;27;45534;-77
2021/08/05 07:45:15;;;;;;;;;16.33;16.00;;;;;;;;5102855;27;45463;-77
2021/08/05 07:47:41;;;;;;;;;16.33;15.00;;;;;;;;5101488;27;45521;-76
2021/08/05 07:50:09;;;;;;;;;17.33;16.33;;;;;;;;5103427;27;46153;-76
2021/08/05 07:52:34;;;;;;;;;16.00;16.00;;;;;;;;5099720;27;45366;-76
2021/08/05 07:55:04;;;;;;;;;18.00;17.00;;;;;;;;5100108;27;45285;-76
2021/08/05 07:57:31;;;;;;;;;19.00;18.67;;;;;;;;5099795;27;46161;-76
2021/08/05 07:59:56;;;;;;;;;16.67;16.33;;;;;;;;5100525;27;45474;-76
2021/08/05 08:02:21;;;;;;;;;16.00;16.00;;;;;;;;5101723;27;45800;-76
2021/08/05 08:04:47;;;;;;;;;22.00;17.67;;;;;;;;5102257;27;45357;-77
2021/08/05 08:07:12;;;;;;;;;17.00;15.00;;;;;;;;5101482;27;45403;-79
2021/08/05 08:09:37;;;;;;;;;19.00;18.67;;;;;;;;5101053;27;47225;-77
2021/08/05 08:12:03;;;;;;;;;20.00;19.67;;;;;;;;5106038;27;45798;-76
2021/08/05 08:14:29;;;;;;;;;17.33;17.33;;;;;;;;5118278;27;45371;-77
2021/08/05 08:16:55;;;;;;;;;20.00;18.67;;;;;;;;5109481;27;45496;-75
2021/08/05 08:19:20;;;;;;;;;21.33;20.00;;;;;;;;5099170;27;45532;-74
2021/08/05 08:21:46;;;;;;;;;21.67;19.67;;;;;;;;5103057;27;45798;-75
2021/08/05 08:24:11;;;;;;;;;17.00;16.67;;;;;;;;5103468;27;45381;-76
2021/08/05 08:26:37;;;;;;;;;18.00;17.67;;;;;;;;5098614;27;47552;-79
2021/08/05 08:29:03;;;;;;;;;19.00;18.33;;;;;;;;5103542;27;45379;-76
2021/08/05 08:31:29;;;;;;;;;18.00;18.00;;;;;;;;5105578;27;45391;-77
2021/08/05 08:33:54;;;;;;;;;23.00;21.00;;;;;;;;5102651;27;45961;-77
2021/08/05 08:36:19;;;;;;;;;19.00;19.00;;;;;;;;5098264;27;45502;-76
2021/08/05 08:38:44;;;;;;;;;20.33;18.00;;;;;;;;5098243;27;46700;-76
2021/08/05 08:41:12;;;;;;;;;18.00;18.00;;;;;;;;5102332;27;45491;-76
2021/08/05 08:43:38;;;;;;;;;18.67;18.67;;;;;;;;5098326;27;45459;-77
2021/08/05 08:46:04;;;;;;;;;17.67;17.67;;;;;;;;5099243;27;45498;-77
2021/08/05 08:48:31;;;;;;;;;18.67;17.33;;;;;;;;5104291;27;45349;-79
2021/08/05 08:51:00;;;;;;;;;20.67;20.33;;;;;;;;5100896;27;45538;-78
2021/08/05 08:53:28;;;;;;;;;18.67;17.00;;;;;;;;5102710;27;45674;-77
2021/08/05 08:55:56;;;;;;;;;16.33;16.33;;;;;;;;5099222;27;45523;-76
2021/08/05 08:58:23;;;;;;;;;21.33;21.33;;;;;;;;5102877;27;45435;-79
2021/08/05 09:00:48;;;;;;;;;19.33;19.00;;;;;;;;5099089;27;45156;-76
2021/08/05 09:03:13;;;;;;;;;20.33;19.67;;;;;;;;5103511;27;45585;-76
2021/08/05 09:05:39;;;;;;;;;17.67;17.33;;;;;;;;5101070;27;45464;-76
2021/08/05 09:08:04;;;;;;;;;21.00;20.00;;;;;;;;5103176;27;45387;-76
2021/08/05 09:10:32;;;;;;;;;20.00;17.50;;;;;;;;5099427;27;45670;-77
2021/08/05 09:12:58;;;;;;;;;16.00;15.00;;;;;;;;5098510;27;45392;-78
2021/08/05 09:15:34;;;;;;;;;14.00;14.00;;;;;;;;5096466;27;45377;-77
2021/08/05 09:17:59;;;;;;;;;11.00;11.00;;;;;;;;5106451;27;45552;-77
2021/08/05 09:20:25;;;;;;;;;17.00;15.00;;;;;;;;5100580;27;45271;-76
2021/08/05 09:22:50;;;;;;;;;19.00;18.33;;;;;;;;5102714;27;45946;-78
2021/08/05 09:25:22;;;;;;;;;15.00;14.67;;;;;;;;5105881;27;45479;-77
2021/08/05 09:27:48;;;;;;;;;18.33;17.00;;;;;;;;5114793;27;45320;-77
2021/08/05 09:30:33;;;;;;;;;16.67;15.67;;;;;;;;5113296;27;45455;-77
2021/08/05 09:33:09;;;;;;;;;14.00;12.67;;;;;;;;5116292;27;45696;-77
2021/08/05 09:35:35;;;;;;;;;14.33;13.67;;;;;;;;5106004;27;45363;-77
2021/08/05 09:38:33;;;;;;;;;15.00;14.00;;;;;;;;5107869;27;45449;-77
2021/08/05 09:41:04;;;;;;;;;14.00;11.67;;;;;;;;5086663;27;45454;-77
2021/08/05 09:43:30;;;;;;;;;12.00;11.00;;;;;;;;5104699;27;45435;-77
2021/08/05 09:45:56;;;;;;;;;8.67;8.33;;;;;;;;5102564;27;45235;-77
2021/08/05 09:48:33;;;;;;;;;11.67;10.67;;;;;;;;5103046;27;45427;-75
2021/08/05 09:51:24;;;;;;;;;12.00;10.67;;;;;;;;5104630;27;45531;-75
2021/08/05 09:53:53;;;;;;;;;12.33;12.33;;;;;;;;5104240;27;45688;-76
2021/08/05 09:56:18;;;;;;;;;11.67;11.67;;;;;;;;5103531;27;45364;-75
2021/08/05 09:58:44;;;;;;;;;11.67;11.67;;;;;;;;5107052;27;45935;-75
2021/08/05 10:01:09;;;;;;;;;17.33;14.67;;;;;;;;5106042;27;45622;-78
2021/08/05 10:03:35;;;;;;;;;15.67;15.00;;;;;;;;5106919;27;45523;-76
2021/08/05 10:06:05;;;;;;;;;13.33;12.00;;;;;;;;5101840;27;45474;-76
2021/08/05 10:08:38;;;;;;;;;15.67;15.67;;;;;;;;5103051;27;45560;-77
2021/08/05 10:11:04;;;;;;;;;18.00;17.00;;;;;;;;5113780;27;45479;-79
2021/08/05 10:13:34;;;;;;;;;16.67;13.67;;;;;;;;5111816;27;45543;-76
2021/08/05 10:15:59;;;;;;;;;14.00;14.00;;;;;;;;5110823;27;45521;-75
2021/08/05 10:18:29;;;;;;;;;14.00;13.00;;;;;;;;5105030;27;45503;-75
2021/08/05 10:20:55;;;;;;;;;15.00;14.00;;;;;;;;5110949;27;45429;-76
2021/08/05 10:23:21;;;;;;;;;16.67;15.67;;;;;;;;5106842;27;45438;-76
2021/08/05 10:25:47;;;;;;;;;14.00;14.00;;;;;;;;5107658;27;45486;-75
2021/08/05 10:28:13;;;;;;;;;14.33;13.33;;;;;;;;5102125;27;46174;-75
2021/08/05 10:30:40;;;;;;;;;12.67;12.67;;;;;;;;5101416;27;45307;-76
2021/08/05 10:33:07;;;;;;;;;13.33;13.33;;;;;;;;5103121;27;45340;-75
2021/08/05 10:35:33;;;;;;;;;11.33;11.33;;;;;;;;5102656;27;45464;-75
2021/08/05 10:38:00;;;;;;;;;11.00;11.00;;;;;;;;5103358;27;46394;-74
2021/08/05 10:40:26;;;;;;;;;11.00;10.00;;;;;;;;5100973;27;45413;-74
2021/08/05 10:42:53;;;;;;;;;16.67;14.33;;;;;;;;5107424;27;45665;-75
2021/08/05 10:45:20;;;;;;;;;12.67;12.67;;;;;;;;5100151;27;46402;-76
2021/08/05 10:47:46;;;;;;;;;13.00;13.00;;;;;;;;5103266;27;46031;-75
2021/08/05 10:50:13;;;;;;;;;9.33;8.33;;;;;;;;5101250;27;45356;-76
2021/08/05 10:52:40;;;;;;;;;10.00;9.00;;;;;;;;5102798;27;45827;-75
2021/08/05 10:55:05;;;;;;;;;10.33;9.67;;;;;;;;5100351;27;45574;-75
2021/08/05 10:57:31;;;;;;;;;12.67;10.00;;;;;;;;5102904;27;46103;-75
2021/08/05 10:59:57;;;;;;;;;14.00;13.00;;;;;;;;5102543;27;45322;-76
2021/08/05 11:02:41;;;;;;;;;12.00;11.00;;;;;;;;5100499;27;45444;-76
2021/08/05 11:05:07;;;;;;;;;8.33;8.33;;;;;;;;5106583;27;45446;-76
2021/08/05 11:07:33;;;;;;;;;7.33;7.33;;;;;;;;5105663;27;45929;-77
2021/08/05 11:10:16;;;;;;;;;6.67;6.67;;;;;;;;5101615;27;45566;-77
2021/08/05 11:12:55;;;;;;;;;7.00;6.67;;;;;;;;5100485;27;45434;-77
2021/08/05 11:15:26;;;;;;;;;9.33;6.67;;;;;;;;5101612;27;45444;-76
2021/08/05 11:18:19;;;;;;;;;7.33;7.00;;;;;;;;5101032;27;45370;-77
2021/08/05 11:21:04;;;;;;;;;6.67;5.00;;;;;;;;5110059;27;45291;-76
2021/08/05 11:23:35;;;;;;;;;5.00;5.00;;;;;;;;5097789;27;45419;-76
2021/08/05 11:26:02;;;;;;;;;5.33;5.33;;;;;;;;5108674;27;45297;-77
2021/08/05 11:28:32;;;;;;;;;6.00;6.00;;;;;;;;5107902;27;45629;-77
2021/08/05 11:30:59;;;;;;;;;5.33;5.00;;;;;;;;5100736;27;45375;-78
2021/08/05 11:33:36;;;;;;;;;4.33;4.33;;;;;;;;5112639;27;45577;-81
2021/08/05 11:36:15;;;;;;;;;6.00;5.00;;;;;;;;5101851;27;45529;-78
2021/08/05 11:38:59;;;;;;;;;6.67;4.00;;;;;;;;5111638;27;45316;-77
2021/08/05 11:41:43;;;;;;;;;5.00;5.00;;;;;;;;5106717;27;45415;-77
2021/08/05 11:44:17;;;;;;;;;4.00;4.00;;;;;;;;5101327;27;45337;-77
2021/08/05 11:46:43;;;;;;;;;5.00;5.00;;;;;;;;5101580;27;45529;-78
2021/08/05 11:49:29;;;;;;;;;7.00;6.33;;;;;;;;5110941;27;45713;-79
2021/08/05 11:51:54;;;;;;;;;6.00;6.00;;;;;;;;5100681;27;45388;-78
2021/08/05 11:54:20;;;;;;;;;5.00;5.00;;;;;;;;5102510;27;45392;-77
2021/08/05 11:57:01;;;;;;;;;9.00;8.00;;;;;;;;5100530;27;45575;-76
2021/08/05 11:59:41;;;;;;;;;8.33;8.33;;;;;;;;5104773;27;45439;-76
2021/08/05 12:02:08;;;;;;;;;6.00;6.00;;;;;;;;5100474;27;47406;-75
2021/08/05 12:04:34;;;;;;;;;4.00;4.00;;;;;;;;5105140;27;45325;-77
2021/08/05 12:07:29;;;;;;;;;8.00;6.00;;;;;;;;5103171;27;45231;-75
2021/08/05 12:09:57;;;;;;;;;4.67;4.00;;;;;;;;5090244;27;45438;-75
2021/08/05 12:12:23;;;;;;;;;5.33;5.00;;;;;;;;5107577;27;45436;-76
2021/08/05 12:14:52;;;;;;;;;4.00;4.00;;;;;;;;5102518;27;45436;-76
2021/08/05 12:17:28;;;;;;;;;6.00;6.00;;;;;;;;5101622;27;45575;-78
2021/08/05 12:19:54;;;;;;;;;5.00;5.00;;;;;;;;5105777;27;45686;-75
2021/08/05 12:22:27;;;;;;;;;6.33;6.33;;;;;;;;5097686;27;45561;-76
2021/08/05 12:24:54;;;;;;;;;5.00;5.00;;;;;;;;5109752;27;45575;-76
2021/08/05 12:27:20;;;;;;;;;4.33;4.33;;;;;;;;5098971;27;46188;-77
2021/08/05 12:30:06;;;;;;;;;5.67;5.33;;;;;;;;5108057;27;45471;-76
2021/08/05 12:32:32;;;;;;;;;5.33;5.33;;;;;;;;5108617;27;45785;-77
2021/08/05 12:34:57;;;;;;;;;6.00;6.00;;;;;;;;5108566;27;45262;-76
2021/08/05 12:37:23;;;;;;;;;5.00;5.00;;;;;;;;5100879;27;45637;-77
2021/08/05 12:39:48;;;;;;;;;5.00;5.00;;;;;;;;5106166;27;45427;-77
2021/08/05 12:42:15;;;;;;;;;5.00;5.00;;;;;;;;5101475;27;45405;-77
2021/08/05 12:44:41;;;;;;;;;4.00;4.00;;;;;;;;5105304;27;45472;-78
2021/08/05 12:47:07;;;;;;;;;4.33;4.33;;;;;;;;5101225;27;45203;-77
2021/08/05 12:49:37;;;;;;;;;4.00;4.00;;;;;;;;5103492;27;45383;-75
2021/08/05 12:52:03;;;;;;;;;4.00;4.00;;;;;;;;5098944;27;45558;-74
2021/08/05 12:54:29;;;;;;;;;4.00;4.00;;;;;;;;5101739;27;45447;-75
2021/08/05 12:56:58;;;;;;;;;2.67;2.67;;;;;;;;5101271;27;45321;-75
2021/08/05 12:59:26;;;;;;;;;4.00;4.00;;;;;;;;5105475;27;46200;-75
2021/08/05 13:02:06;;;;;;;;;4.00;4.00;;;;;;;;5105768;27;45614;-74
2021/08/05 13:04:32;;;;;;;;;6.00;6.00;;;;;;;;5103087;27;45502;-76
2021/08/05 13:06:58;;;;;;;;;3.00;3.00;;;;;;;;5103539;27;45324;-78
2021/08/05 13:09:28;;;;;;;;;3.67;3.67;;;;;;;;5104965;27;46077;-76
2021/08/05 13:11:54;;;;;;;;;3.00;3.00;;;;;;;;5104956;27;45455;-76
2021/08/05 13:14:33;;;;;;;;;7.00;5.67;;;;;;;;5105237;27;45392;-75
2021/08/05 13:17:06;;;;;;;;;4.67;4.67;;;;;;;;5116307;27;45473;-75
2021/08/05 13:19:49;;;;;;;;;3.33;3.33;;;;;;;;5123592;27;45459;-77
2021/08/05 13:22:16;;;;;;;;;3.00;3.00;;;;;;;;5124123;27;45344;-77
2021/08/05 13:24:55;;;;;;;;;4.00;4.00;;;;;;;;5124304;27;45384;-76
2021/08/05 13:27:20;;;;;;;;;4.67;3.67;;;;;;;;5120954;27;45413;-76
2021/08/05 13:29:47;;;;;;;;;2.33;2.33;;;;;;;;5123722;27;45506;-80
2021/08/05 13:32:13;;;;;;;;;5.00;5.00;;;;;;;;5117983;27;46405;-76
2021/08/05 13:34:38;;;;;;;;;5.33;5.33;;;;;;;;5121507;27;45328;-78
2021/08/05 13:37:04;;;;;;;;;3.33;3.33;;;;;;;;5121692;27;45406;-77
2021/08/05 13:39:46;;;;;;;;;5.67;4.67;;;;;;;;5122813;27;46098;-77
2021/08/05 13:42:12;;;;;;;;;4.00;4.00;;;;;;;;5118974;27;45524;-77
2021/08/05 13:44:37;;;;;;;;;3.00;3.00;;;;;;;;5102966;27;45404;-77
2021/08/05 13:47:03;;;;;;;;;4.00;4.00;;;;;;;;5103131;27;45344;-76
2021/08/05 13:49:28;;;;;;;;;3.00;3.00;;;;;;;;5102842;27;45345;-76
2021/08/05 13:51:53;;;;;;;;;6.67;5.67;;;;;;;;5103011;27;45327;-76
2021/08/05 13:54:19;;;;;;;;;3.00;3.00;;;;;;;;5103239;27;45615;-75
2021/08/05 13:56:44;;;;;;;;;2.00;2.00;;;;;;;;5103013;27;45433;-76
2021/08/05 13:59:09;;;;;;;;;4.00;4.00;;;;;;;;5106594;27;46114;-76
2021/08/05 14:01:35;;;;;;;;;3.00;3.00;;;;;;;;5123610;27;45363;-76
2021/08/05 14:04:00;;;;;;;;;4.00;2.67;;;;;;;;5123617;27;45328;-75
2021/08/05 14:06:25;;;;;;;;;3.00;3.00;;;;;;;;5123201;27;45233;-76
2021/08/05 14:08:50;;;;;;;;;2.00;2.00;;;;;;;;5123489;27;45248;-76
2021/08/05 14:11:16;;;;;;;;;2.00;2.00;;;;;;;;5123146;27;45301;-76
2021/08/05 14:13:41;;;;;;;;;3.00;3.00;;;;;;;;5123632;27;45463;-74
2021/08/05 14:16:07;;;;;;;;;3.67;1.00;;;;;;;;5119514;27;45418;-76
2021/08/05 14:18:32;;;;;;;;;4.00;4.00;;;;;;;;5112419;27;45439;-77
2021/08/05 14:20:57;;;;;;;;;1.67;1.00;;;;;;;;5102575;27;45380;-75
2021/08/05 14:23:23;;;;;;;;;1.33;1.33;;;;;;;;5107901;27;45312;-79
2021/08/05 14:25:48;;;;;;;;;2.00;2.00;;;;;;;;5108001;27;45464;-76
2021/08/05 14:28:13;;;;;;;;;2.00;2.00;;;;;;;;5110799;27;45356;-79
2021/08/05 14:30:39;;;;;;;;;2.00;2.00;;;;;;;;5111365;27;45356;-79
2021/08/05 14:33:04;;;;;;;;;4.00;4.00;;;;;;;;5117264;27;45821;-77
2021/08/05 14:35:30;;;;;;;;;3.00;3.00;;;;;;;;5122182;27;45609;-76